createdAt,value
2019-06-07T00:00:38.803Z,98912.47
2019-06-07T00:03:05.265Z,98910.92
2019-06-07T00:05:39.672Z,98909.38
2019-06-07T00:08:22.521Z,98908.91
2019-06-07T00:10:49.997Z,98912.66
2019-06-07T00:13:24.325Z,98908.78
2019-06-07T00:15:58.925Z,98915.03
2019-06-07T00:18:33.023Z,98911.25
2019-06-07T00:21:08.960Z,98906.20
2019-06-07T00:23:42.998Z,98900.45
2019-06-07T00:26:21.111Z,98909.30
2019-06-07T00:28:52.870Z,98908.99
2019-06-07T00:31:27.715Z,98912.08
2019-06-07T00:34:01.765Z,98905.91
2019-06-07T00:36:35.125Z,98910.84
2019-06-07T00:39:10.644Z,98910.48
2019-06-07T00:41:45.635Z,98900.77
2019-06-07T00:44:21.559Z,98909.14
2019-06-07T00:46:54.340Z,98903.11
2019-06-07T00:49:40.690Z,98902.78
2019-06-07T00:52:03.778Z,98905.25
2019-06-07T00:54:38.390Z,98898.67
2019-06-07T00:57:16.660Z,98900.88
2019-06-07T00:59:48.765Z,98902.17
2019-06-07T01:02:26.011Z,98899.84
2019-06-07T01:04:57.492Z,98901.80
2019-06-07T01:07:31.655Z,98901.30
2019-06-07T01:10:05.212Z,98902.86
2019-06-07T01:12:38.231Z,98895.95
2019-06-07T01:15:15.767Z,98896.56
2019-06-07T01:18:33.204Z,98902.70
2019-06-07T01:20:24.854Z,98903.70
2019-06-07T01:22:58.192Z,98902.30
2019-06-07T01:25:31.574Z,98905.02
2019-06-07T01:28:04.734Z,98901.51
2019-06-07T01:30:38.457Z,98905.73
2019-06-07T01:33:11.618Z,98898.16
2019-06-07T01:35:44.569Z,98899.98
2019-06-07T01:38:21.192Z,98895.57
2019-06-07T01:40:52.865Z,98898.94
2019-06-07T01:43:30.469Z,98901.77
2019-06-07T01:46:03.554Z,98905.97
2019-06-07T01:48:48.934Z,98903.95
2019-06-07T01:51:13.623Z,98904.42
2019-06-07T01:53:47.149Z,98905.59
2019-06-07T01:56:22.546Z,98895.74
2019-06-07T01:58:56.419Z,98904.89
2019-06-07T02:01:35.027Z,98896.58
2019-06-07T02:04:05.183Z,98902.67
2019-06-07T02:06:38.665Z,98903.61
2019-06-07T02:09:13.228Z,98903.33
2019-06-07T02:11:46.704Z,98903.23
2019-06-07T02:14:22.319Z,98903.87
2019-06-07T02:16:54.983Z,98898.80
2019-06-07T02:19:31.675Z,98906.45
2019-06-07T02:22:03.499Z,98902.10
2019-06-07T02:24:36.685Z,98908.59
2019-06-07T02:27:10.062Z,98907.87
2019-06-07T02:29:43.491Z,98907.36
2019-06-07T02:32:16.949Z,98905.48
2019-06-07T02:34:50.228Z,98902.72
2019-06-07T02:37:26.355Z,98908.03
2019-06-07T02:39:59.000Z,98911.59
2019-06-07T02:42:39.004Z,98910.36
2019-06-07T02:45:08.703Z,98911.67
2019-06-07T02:47:45.360Z,98913.89
2019-06-07T02:50:19.502Z,98908.80
2019-06-07T02:52:53.844Z,98910.95
2019-06-07T02:55:31.252Z,98909.05
2019-06-07T02:58:04.155Z,98914.20
2019-06-07T03:01:08.868Z,98914.05
2019-06-07T03:03:28.345Z,98902.55
2019-06-07T03:06:01.478Z,98909.45
2019-06-07T03:08:36.818Z,98913.52
2019-06-07T03:11:12.780Z,98913.91
2019-06-07T03:13:48.537Z,98914.16
2019-06-07T03:16:37.355Z,98902.94
2019-06-07T03:19:18.233Z,98911.76
2019-06-07T03:21:55.318Z,98916.67
2019-06-07T03:24:31.565Z,98916.52
2019-06-07T03:29:41.459Z,98915.83
2019-06-07T03:32:15.519Z,98922.29
2019-06-07T03:34:48.764Z,98925.84
2019-06-07T03:37:21.967Z,98928.44
2019-06-07T03:39:54.845Z,98926.65
2019-06-07T03:42:29.208Z,98922.84
2019-06-07T03:45:03.892Z,98928.44
2019-06-07T03:47:41.427Z,98925.30
2019-06-07T03:50:12.467Z,98924.87
2019-06-07T03:52:45.496Z,98933.22
2019-06-07T03:55:18.652Z,98931.73
2019-06-07T04:00:29.615Z,98936.66
2019-06-07T04:03:02.958Z,98938.47
2019-06-07T04:05:38.831Z,98936.08
2019-06-07T04:08:11.387Z,98943.83
2019-06-07T04:10:59.031Z,98943.13
2019-06-07T04:13:20.161Z,98944.13
2019-06-07T04:15:53.539Z,98956.19
2019-06-07T04:18:27.933Z,98954.41
2019-06-07T04:21:01.374Z,98957.33
2019-06-07T04:23:37.605Z,98958.98
2019-06-07T04:26:10.072Z,98956.02
2019-06-07T04:31:19.276Z,98951.20
2019-06-07T04:33:53.374Z,98958.81
2019-06-07T04:36:41.887Z,98960.81
2019-06-07T04:39:03.491Z,98955.99
2019-06-07T04:41:41.044Z,98956.89
2019-06-07T04:44:17.486Z,98963.28
2019-06-07T04:46:52.784Z,98965.12
2019-06-07T04:49:29.721Z,98964.36
2019-06-07T04:52:03.219Z,98961.56
2019-06-07T04:54:38.534Z,98967.00
2019-06-07T04:57:11.078Z,98965.31
2019-06-07T05:02:19.947Z,98969.77
2019-06-07T05:04:53.550Z,98970.64
2019-06-07T05:07:27.022Z,98973.56
2019-06-07T05:10:01.416Z,98971.87
2019-06-07T05:12:39.474Z,98971.01
2019-06-07T05:15:11.952Z,98965.90
2019-06-07T05:17:46.077Z,98977.05
2019-06-07T05:20:19.303Z,98968.55
2019-06-07T05:22:52.989Z,98974.03
2019-06-07T05:25:26.417Z,98975.97
2019-06-07T05:28:00.826Z,98979.56
2019-06-07T05:33:15.185Z,98986.95
2019-06-07T05:35:48.956Z,98986.95
2019-06-07T05:38:24.828Z,98979.10
2019-06-07T05:40:58.645Z,98986.33
2019-06-07T05:43:36.564Z,98989.38
2019-06-07T05:46:09.745Z,98993.03
2019-06-07T05:48:43.912Z,98987.37
2019-06-07T05:51:18.499Z,98984.66
2019-06-07T05:53:51.700Z,98985.96
2019-06-07T05:56:25.560Z,98988.57
2019-06-07T05:58:59.222Z,98991.26
2019-06-07T06:01:59.767Z,98984.00
2019-06-07T06:04:09.332Z,98991.19
2019-06-07T06:06:46.496Z,98992.84
2019-06-07T06:09:17.207Z,98995.33
2019-06-07T06:12:01.794Z,98984.72
2019-06-07T06:14:25.210Z,98977.63
2019-06-07T06:16:58.966Z,98991.36
2019-06-07T06:19:32.489Z,98990.67
2019-06-07T06:22:05.957Z,98997.46
2019-06-07T06:24:42.259Z,98993.66
2019-06-07T06:27:41.751Z,98994.77
2019-06-07T06:29:52.403Z,98992.77
2019-06-07T06:32:49.322Z,98998.66
2019-06-07T06:35:01.719Z,98997.32
2019-06-07T06:37:35.299Z,99000.33
2019-06-07T06:40:09.250Z,99000.38
2019-06-07T06:42:44.748Z,98998.12
2019-06-07T06:45:18.158Z,99006.09
2019-06-07T06:47:51.561Z,99001.71
2019-06-07T06:50:24.949Z,98993.52
2019-06-07T06:52:58.327Z,98997.31
2019-06-07T06:55:31.518Z,98995.63
2019-06-07T06:58:04.497Z,98995.39
2019-06-07T07:01:05.867Z,98991.06
2019-06-07T07:03:57.343Z,98999.98
2019-06-07T07:06:25.096Z,98995.86
2019-06-07T07:08:43.665Z,98997.86
2019-06-07T07:11:23.050Z,99000.83
2019-06-07T07:13:56.707Z,98995.34
2019-06-07T07:16:30.057Z,99000.63
2019-06-07T07:19:03.316Z,98996.28
2019-06-07T07:21:38.761Z,98998.77
2019-06-07T07:24:21.867Z,99004.55
2019-06-07T07:26:50.351Z,99007.34
2019-06-07T07:29:23.255Z,99010.72
2019-06-07T07:31:57.195Z,99007.94
2019-06-07T07:34:36.657Z,99007.06
2019-06-07T07:37:08.646Z,99005.09
2019-06-07T07:39:45.295Z,99007.55
2019-06-07T07:42:21.906Z,99008.52
2019-06-07T07:44:56.765Z,98998.89
2019-06-07T07:47:32.769Z,99003.78
2019-06-07T07:50:07.338Z,99000.83
2019-06-07T07:52:41.623Z,99011.01
2019-06-07T07:55:15.436Z,99013.36
2019-06-07T07:57:58.013Z,99012.84
2019-06-07T08:00:50.270Z,99008.66
2019-06-07T08:03:04.340Z,99014.45
2019-06-07T08:05:42.949Z,99015.59
2019-06-07T08:08:12.735Z,99012.10
2019-06-07T08:10:51.364Z,99004.59
2019-06-07T08:13:25.458Z,98999.56
2019-06-07T08:16:00.387Z,99007.28
2019-06-07T08:18:33.375Z,99005.35
2019-06-07T08:21:22.489Z,99013.55
2019-06-07T08:23:42.498Z,99013.48
2019-06-07T08:26:16.408Z,99012.46
2019-06-07T08:28:54.718Z,99010.92
2019-06-07T08:31:26.828Z,99007.44
2019-06-07T08:34:01.949Z,99008.81
2019-06-07T08:36:42.490Z,99012.77
2019-06-07T08:39:16.880Z,99018.52
2019-06-07T08:41:59.367Z,99027.49
2019-06-07T08:44:26.518Z,99026.70
2019-06-07T08:47:18.897Z,99037.63
2019-06-07T08:49:39.195Z,99029.00
2019-06-07T08:52:13.019Z,99030.57
2019-06-07T08:54:48.096Z,99029.70
2019-06-07T08:57:22.133Z,99029.31
2019-06-07T09:00:05.985Z,99033.09
2019-06-07T09:02:32.954Z,99028.27
2019-06-07T09:05:12.241Z,99032.34
2019-06-07T09:07:46.457Z,99021.78
2019-06-07T09:10:20.893Z,99021.80
2019-06-07T09:13:00.297Z,99025.96
2019-06-07T09:15:32.855Z,99014.73
2019-06-07T09:18:40.094Z,99011.36
2019-06-07T09:20:51.435Z,99015.53
2019-06-07T09:23:25.149Z,99018.70
2019-06-07T09:26:06.465Z,99013.93
2019-06-07T09:28:35.555Z,99026.91
2019-06-07T09:31:10.536Z,99036.48
2019-06-07T09:33:43.766Z,99023.16
2019-06-07T09:36:18.800Z,99028.94
2019-06-07T09:38:52.745Z,99029.33
2019-06-07T09:41:46.161Z,99034.41
2019-06-07T09:44:18.946Z,99037.77
2019-06-07T09:46:37.104Z,99036.70
2019-06-07T09:49:21.135Z,99040.67
2019-06-07T09:51:46.590Z,99038.73
2019-06-07T09:55:03.372Z,99039.71
2019-06-07T09:56:55.387Z,99029.44
2019-06-07T09:59:29.443Z,99025.53
2019-06-07T10:02:05.588Z,99015.28
2019-06-07T10:04:38.342Z,99022.09
2019-06-07T10:07:28.630Z,99010.73
2019-06-07T10:10:19.633Z,99024.48
2019-06-07T10:12:26.693Z,99022.34
2019-06-07T10:15:07.034Z,99017.45
2019-06-07T10:17:41.029Z,99033.17
2019-06-07T10:20:14.692Z,99021.20
2019-06-07T10:22:49.624Z,99014.13
2019-06-07T10:25:23.146Z,99018.81
2019-06-07T10:27:57.052Z,99013.59
2019-06-07T10:30:30.951Z,99005.12
2019-06-07T10:33:04.964Z,99006.05
2019-06-07T10:35:39.245Z,98999.58
2019-06-07T10:38:12.458Z,98995.45
2019-06-07T10:40:45.585Z,98994.43
2019-06-07T10:43:19.279Z,98991.02
2019-06-07T10:45:52.831Z,98988.95
2019-06-07T10:48:26.320Z,98994.41
2019-06-07T10:51:00.121Z,98995.86
2019-06-07T10:53:33.753Z,98985.36
2019-06-07T10:56:09.024Z,98983.99
2019-06-07T10:58:42.923Z,98973.58
2019-06-07T11:01:17.513Z,98975.05
2019-06-07T11:03:51.947Z,98968.57
2019-06-07T11:06:26.276Z,98968.72
2019-06-07T11:09:00.247Z,98962.41
2019-06-07T11:11:33.702Z,98968.73
2019-06-07T11:14:08.603Z,98963.28
2019-06-07T11:16:42.599Z,98960.61
2019-06-07T11:19:18.013Z,98956.34
2019-06-07T11:21:51.207Z,98960.63
2019-06-07T11:24:25.801Z,98961.28
2019-06-07T11:26:59.267Z,98957.69
2019-06-07T11:29:33.730Z,98955.73
2019-06-07T11:32:08.407Z,98955.64
2019-06-07T11:34:42.800Z,98951.60
2019-06-07T11:37:19.069Z,98959.83
2019-06-07T11:39:53.338Z,98955.52
2019-06-07T11:42:28.207Z,98956.10
2019-06-07T11:45:02.347Z,98949.10
2019-06-07T11:47:37.553Z,98954.86
2019-06-07T11:50:13.731Z,98957.13
2019-06-07T11:52:49.087Z,98961.89
2019-06-07T11:55:23.287Z,98959.19
2019-06-07T11:58:01.770Z,98958.42
2019-06-07T12:00:36.111Z,98959.17
2019-06-07T12:03:11.551Z,98943.56
2019-06-07T12:05:45.688Z,98961.84
2019-06-07T12:08:22.783Z,98944.91
2019-06-07T12:10:56.479Z,98937.47
2019-06-07T12:13:31.113Z,98928.61
2019-06-07T12:16:09.062Z,98943.69
2019-06-07T12:18:43.075Z,98939.48
2019-06-07T12:21:18.007Z,98966.73
2019-06-07T12:23:52.337Z,98941.55
2019-06-07T12:26:26.404Z,98938.16
2019-06-07T12:29:00.841Z,98932.91
2019-06-07T12:31:34.658Z,98931.13
2019-06-07T12:34:09.398Z,98933.63
2019-06-07T12:36:43.084Z,98934.42
2019-06-07T12:39:16.613Z,98938.48
2019-06-07T12:41:49.929Z,98934.59
2019-06-07T12:44:23.937Z,98938.38
2019-06-07T12:46:59.573Z,98937.51
2019-06-07T12:49:36.059Z,98948.28
2019-06-07T12:52:15.694Z,98936.64
2019-06-07T12:54:48.601Z,98952.23
2019-06-07T12:57:24.325Z,98948.55
2019-06-07T12:59:59.818Z,98950.09
2019-06-07T13:02:35.596Z,98958.36
2019-06-07T13:05:11.296Z,98948.13
2019-06-07T13:07:44.826Z,98949.50
2019-06-07T13:10:22.053Z,98969.47
2019-06-07T13:12:57.580Z,98963.59
2019-06-07T13:15:36.575Z,98952.27
2019-06-07T13:18:14.837Z,98944.25
2019-06-07T13:20:47.054Z,98936.86
2019-06-07T13:23:22.673Z,98945.55
2019-06-07T13:25:57.896Z,98959.41
2019-06-07T13:28:31.955Z,98964.31
2019-06-07T13:31:06.262Z,98947.81
2019-06-07T13:33:42.900Z,98952.14
2019-06-07T13:36:18.022Z,98957.16
2019-06-07T13:38:54.896Z,98948.52
2019-06-07T13:41:40.524Z,98960.08
2019-06-07T13:44:04.548Z,98950.45
2019-06-07T13:46:38.561Z,98952.03
2019-06-07T13:49:12.411Z,98954.55
2019-06-07T13:51:48.736Z,98954.98
2019-06-07T13:54:22.832Z,98952.92
2019-06-07T13:57:02.282Z,98945.12
2019-06-07T13:59:31.771Z,98946.63
2019-06-07T14:02:05.299Z,98940.67
2019-06-07T14:04:39.226Z,98941.80
2019-06-07T14:07:13.282Z,98945.05
2019-06-07T14:09:47.659Z,98948.56
2019-06-07T14:12:22.272Z,98976.13
2019-06-07T14:14:57.193Z,98968.58
2019-06-07T14:17:32.533Z,98963.83
2019-06-07T14:20:06.968Z,98973.73
2019-06-07T14:22:40.747Z,98964.87
2019-06-07T14:25:14.386Z,98973.15
2019-06-07T14:27:48.599Z,98974.45
2019-06-07T14:30:23.807Z,98981.67
2019-06-07T14:32:57.725Z,98962.26
2019-06-07T14:35:33.690Z,98978.02
2019-06-07T14:38:08.876Z,98981.56
2019-06-07T14:40:43.294Z,98982.72
2019-06-07T14:43:17.653Z,98991.34
2019-06-07T14:45:57.097Z,98975.63
2019-06-07T14:48:33.022Z,98973.80
2019-06-07T14:51:07.003Z,98978.17
2019-06-07T14:53:40.813Z,98966.58
2019-06-07T14:56:14.490Z,98947.61
2019-06-07T14:58:48.477Z,98944.32
2019-06-07T15:01:22.141Z,98933.46
2019-06-07T15:03:55.816Z,98936.59
2019-06-07T15:06:30.659Z,98936.80
2019-06-07T15:09:07.035Z,98929.05
2019-06-07T15:11:40.939Z,98931.88
2019-06-07T15:14:17.475Z,98933.39
2019-06-07T15:16:51.621Z,98944.42
2019-06-07T15:19:26.616Z,98953.50
2019-06-07T15:22:00.703Z,98971.00
2019-06-07T15:24:38.610Z,98986.81
2019-06-07T15:27:10.512Z,98985.79
2019-06-07T15:29:45.191Z,98995.80
2019-06-07T15:32:19.600Z,98986.70
2019-06-07T15:34:53.550Z,98990.47
2019-06-07T15:37:26.772Z,98990.48
2019-06-07T15:40:07.530Z,98983.80
2019-06-07T15:42:51.919Z,98988.95
2019-06-07T15:45:19.805Z,98986.68
2019-06-07T15:47:54.663Z,99000.50
2019-06-07T15:50:30.387Z,99001.33
2019-06-07T15:53:06.851Z,98988.73
2019-06-07T15:55:45.409Z,98974.61
2019-06-07T15:58:18.634Z,98981.14
2019-06-07T16:00:53.657Z,98987.89
2019-06-07T16:03:28.181Z,98984.64
2019-06-07T16:06:01.899Z,98971.77
2019-06-07T16:08:36.300Z,98942.95
2019-06-07T16:11:11.596Z,98938.85
2019-06-07T16:13:46.405Z,98960.64
2019-06-07T16:16:20.480Z,98975.56
2019-06-07T16:18:56.035Z,98990.09
2019-06-07T16:21:30.658Z,99011.59
2019-06-07T16:24:05.843Z,99030.56
2019-06-07T16:26:40.452Z,98998.78
2019-06-07T16:29:15.097Z,98957.36
2019-06-07T16:31:49.773Z,98943.47
2019-06-07T16:34:30.408Z,98918.69
2019-06-07T16:37:04.967Z,98925.23
2019-06-07T16:39:45.738Z,98916.39
2019-06-07T16:42:21.334Z,98959.72
2019-06-07T16:44:55.208Z,98953.41
2019-06-07T16:47:30.021Z,98959.72
2019-06-07T16:50:04.855Z,98970.16
2019-06-07T16:52:39.210Z,98980.04
2019-06-07T16:55:14.010Z,98985.59
2019-06-07T16:57:49.367Z,98979.00
2019-06-07T17:00:25.241Z,98969.81
2019-06-07T17:03:00.006Z,98962.55
2019-06-07T17:05:33.629Z,98974.56
2019-06-07T17:08:10.256Z,98988.29
2019-06-07T17:10:46.289Z,99005.55
2019-06-07T17:13:33.115Z,99020.47
2019-06-07T17:15:56.245Z,99018.28
2019-06-07T17:18:31.033Z,99008.66
2019-06-07T17:21:04.820Z,98987.22
2019-06-07T17:23:47.308Z,98991.48
2019-06-07T17:26:21.656Z,98990.55
2019-06-07T17:28:56.436Z,98998.81
2019-06-07T17:31:31.384Z,99019.64
2019-06-07T17:34:05.638Z,99012.42
2019-06-07T17:36:40.340Z,98991.69
2019-06-07T17:39:15.027Z,98973.23
2019-06-07T17:42:00.015Z,98962.60
2019-06-07T17:44:27.082Z,98946.12
2019-06-07T17:47:01.323Z,98933.44
2019-06-07T17:49:36.068Z,98963.10
2019-06-07T17:52:10.933Z,98986.66
2019-06-07T17:54:47.924Z,98965.90
2019-06-07T17:57:22.818Z,98962.46
2019-06-07T17:59:56.311Z,98976.36
2019-06-07T18:02:32.911Z,98975.85
2019-06-07T18:05:07.953Z,98967.91
2019-06-07T18:07:45.345Z,98973.44
2019-06-07T18:10:37.294Z,98978.38
2019-06-07T18:13:14.695Z,98987.99
2019-06-07T18:15:53.938Z,99000.27
2019-06-07T18:18:26.913Z,98998.95
2019-06-07T18:21:01.178Z,98987.30
2019-06-07T18:23:34.733Z,98990.11
2019-06-07T18:26:10.875Z,98990.48
2019-06-07T18:28:44.934Z,99003.31
2019-06-07T18:31:19.063Z,99004.01
2019-06-07T18:33:53.330Z,99015.17
2019-06-07T18:36:27.754Z,99019.14
2019-06-07T18:39:04.381Z,99013.13
2019-06-07T18:41:38.824Z,99012.30
2019-06-07T18:44:21.598Z,99006.95
2019-06-07T18:46:52.231Z,99006.08
2019-06-07T18:49:26.000Z,99004.55
2019-06-07T18:52:25.848Z,98992.09
2019-06-07T18:55:04.482Z,99000.88
2019-06-07T18:57:39.232Z,98991.35
2019-06-07T19:00:20.465Z,99004.70
2019-06-07T19:02:56.116Z,98979.16
2019-06-07T19:05:30.674Z,98923.17
2019-06-07T19:08:07.047Z,98989.99
2019-06-07T19:10:45.808Z,99024.83
2019-06-07T19:13:19.803Z,99020.81
2019-06-07T19:15:53.744Z,99012.17
2019-06-07T19:18:28.837Z,99006.19
2019-06-07T19:21:04.995Z,99021.91
2019-06-07T19:23:45.408Z,99021.31
2019-06-07T19:26:20.060Z,99009.89
2019-06-07T19:28:58.854Z,99004.55
2019-06-07T19:31:34.400Z,99015.09
2019-06-07T19:34:10.711Z,99019.02
2019-06-07T19:36:49.082Z,99031.13
2019-06-07T19:39:23.475Z,99036.83
2019-06-07T19:42:00.078Z,99055.58
2019-06-07T19:44:34.183Z,99054.15
2019-06-07T19:47:09.438Z,99052.91
2019-06-07T19:49:44.888Z,99068.02
2019-06-07T19:52:19.415Z,99069.10
2019-06-07T19:54:59.815Z,99085.98
2019-06-07T19:57:35.096Z,99087.02
2019-06-07T20:00:14.531Z,99085.73
2019-06-07T20:02:49.433Z,99086.08
2019-06-07T20:05:29.477Z,99085.51
2019-06-07T20:08:04.917Z,99096.28
2019-06-07T20:10:48.366Z,99106.37
2019-06-07T20:13:25.092Z,99108.30
2019-06-07T20:16:00.900Z,99117.98
2019-06-07T20:18:34.619Z,99116.16
2019-06-07T20:21:09.223Z,99106.31
2019-06-07T20:23:52.401Z,99107.67
2019-06-07T20:26:27.471Z,99116.03
2019-06-07T20:29:03.540Z,99124.94
2019-06-07T20:31:37.847Z,99131.65
2019-06-07T20:34:12.463Z,99132.66
2019-06-07T20:36:46.188Z,99136.06
2019-06-07T20:39:20.873Z,99136.89
2019-06-07T20:41:55.602Z,99136.77
2019-06-07T20:44:30.502Z,99135.47
2019-06-07T20:47:06.445Z,99131.66
2019-06-07T20:49:41.407Z,99122.20
2019-06-07T20:52:16.484Z,99131.26
2019-06-07T20:54:51.992Z,99140.42
2019-06-07T20:57:29.209Z,99139.91
2019-06-07T21:00:13.679Z,99147.55
2019-06-07T21:02:46.084Z,99145.70
2019-06-07T21:05:19.404Z,99137.25
2019-06-07T21:07:52.780Z,99131.44
2019-06-07T21:10:27.270Z,99120.30
2019-06-07T21:13:03.785Z,99105.31
2019-06-07T21:15:48.535Z,99111.30
2019-06-07T21:18:20.046Z,99126.28
2019-06-07T21:20:55.452Z,99134.28
2019-06-07T21:23:30.751Z,99137.58
2019-06-07T21:26:05.040Z,99139.58
2019-06-07T21:28:39.961Z,99139.25
2019-06-07T21:31:13.540Z,99132.09
2019-06-07T21:33:47.164Z,99122.30
2019-06-07T21:36:20.764Z,99119.64
2019-06-07T21:38:54.303Z,99129.72
2019-06-07T21:41:28.777Z,99119.23
2019-06-07T21:44:02.481Z,99118.74
2019-06-07T21:46:36.485Z,99117.55
2019-06-07T21:49:10.537Z,99121.52
2019-06-07T21:51:44.315Z,99108.89
2019-06-07T21:54:19.580Z,99108.69
2019-06-07T21:56:53.424Z,99106.16
2019-06-07T21:59:28.601Z,99106.44
2019-06-07T22:02:28.688Z,99110.22
2019-06-07T22:05:03.368Z,99109.75
2019-06-07T22:07:37.606Z,99108.20
2019-06-07T22:10:14.475Z,99103.88
2019-06-07T22:12:48.431Z,99107.50
2019-06-07T22:15:33.941Z,99107.69
2019-06-07T22:18:01.579Z,99097.98
2019-06-07T22:20:35.560Z,99099.55
2019-06-07T22:23:10.696Z,99104.87
2019-06-07T22:25:45.126Z,99111.49
2019-06-07T22:28:18.813Z,99110.64
2019-06-07T22:30:52.733Z,99106.41
2019-06-07T22:33:27.523Z,99116.48
2019-06-07T22:36:00.889Z,99108.48
2019-06-07T22:38:34.621Z,99120.05
2019-06-07T22:41:09.342Z,99120.52
2019-06-07T22:43:43.759Z,99112.33
2019-06-07T22:46:17.371Z,99119.90
2019-06-07T22:48:50.717Z,99111.89
2019-06-07T22:51:24.522Z,99107.95
2019-06-07T22:53:58.273Z,99104.11
2019-06-07T22:56:43.482Z,99106.95
2019-06-07T22:59:19.146Z,99100.95
2019-06-07T23:01:52.445Z,99101.59
2019-06-07T23:04:25.950Z,99094.52
2019-06-07T23:06:59.443Z,99094.50
2019-06-07T23:09:32.410Z,99103.09
2019-06-07T23:12:05.672Z,99106.80
2019-06-07T23:14:38.708Z,99112.97
2019-06-07T23:17:11.749Z,99108.55
2019-06-07T23:19:44.680Z,99116.20
2019-06-07T23:22:18.118Z,99113.97
2019-06-07T23:24:51.279Z,99110.67
2019-06-07T23:27:24.561Z,99115.45
2019-06-07T23:29:58.072Z,99104.73
2019-06-07T23:32:31.821Z,99101.92
2019-06-07T23:35:05.851Z,99100.86
2019-06-07T23:37:39.185Z,99099.57
2019-06-07T23:40:13.131Z,99107.93
2019-06-07T23:42:46.798Z,99109.48
2019-06-07T23:45:21.575Z,99105.21
2019-06-07T23:47:55.008Z,99114.12
2019-06-07T23:50:28.340Z,99112.29
2019-06-07T23:53:03.072Z,99112.16
2019-06-07T23:55:36.997Z,99108.35
2019-06-07T23:58:13.859Z,99102.89
